sensor_id;sensor_type;location;lat;lon;timestamp;temperature;humidity
67157;SHT31;54086;50.126;8.710;2022-09-23T00:02:17;10.76;75.56
67157;SHT31;54086;50.126;8.710;2022-09-23T00:04:42;10.87;74.67
67157;SHT31;54086;50.126;8.710;2022-09-23T00:07:08;10.83;75.11
67157;SHT31;54086;50.126;8.710;2022-09-23T00:09:33;10.62;76.13
67157;SHT31;54086;50.126;8.710;2022-09-23T00:11:59;10.58;76.44
67157;SHT31;54086;50.126;8.710;2022-09-23T00:14:25;10.49;76.57
67157;SHT31;54086;50.126;8.710;2022-09-23T00:16:50;10.46;76.59
67157;SHT31;54086;50.126;8.710;2022-09-23T00:19:16;10.53;76.34
67157;SHT31;54086;50.126;8.710;2022-09-23T00:21:41;10.63;76.14
67157;SHT31;54086;50.126;8.710;2022-09-23T00:24:06;10.56;76.39
67157;SHT31;54086;50.126;8.710;2022-09-23T00:26:32;10.59;76.11
67157;SHT31;54086;50.126;8.710;2022-09-23T00:28:58;10.53;76.05
67157;SHT31;54086;50.126;8.710;2022-09-23T00:31:25;10.58;76.00
67157;SHT31;54086;50.126;8.710;2022-09-23T00:34:10;10.58;76.05
67157;SHT31;54086;50.126;8.710;2022-09-23T00:36:35;10.66;75.85
67157;SHT31;54086;50.126;8.710;2022-09-23T00:39:01;10.72;75.89
67157;SHT31;54086;50.126;8.710;2022-09-23T00:41:29;10.77;75.57
67157;SHT31;54086;50.126;8.710;2022-09-23T00:43:56;10.81;75.50
67157;SHT31;54086;50.126;8.710;2022-09-23T00:46:27;10.79;75.67
67157;SHT31;54086;50.126;8.710;2022-09-23T00:49:16;10.80;75.55
67157;SHT31;54086;50.126;8.710;2022-09-23T00:51:52;10.80;75.55
67157;SHT31;54086;50.126;8.710;2022-09-23T00:54:20;10.83;75.39
67157;SHT31;54086;50.126;8.710;2022-09-23T00:56:46;10.77;75.32
67157;SHT31;54086;50.126;8.710;2022-09-23T00:59:11;10.72;75.45
67157;SHT31;54086;50.126;8.710;2022-09-23T01:01:38;10.66;75.72
67157;SHT31;54086;50.126;8.710;2022-09-23T01:04:05;10.65;75.73
67157;SHT31;54086;50.126;8.710;2022-09-23T01:06:30;10.60;75.98
67157;SHT31;54086;50.126;8.710;2022-09-23T01:08:57;10.53;76.01
67157;SHT31;54086;50.126;8.710;2022-09-23T01:11:49;10.44;76.43
67157;SHT31;54086;50.126;8.710;2022-09-23T01:17:11;10.45;76.48
67157;SHT31;54086;50.126;8.710;2022-09-23T01:22:29;10.45;76.54
67157;SHT31;54086;50.126;8.710;2022-09-23T01:38:26;10.22;77.82
67157;SHT31;54086;50.126;8.710;2022-09-23T01:43:41;10.02;78.89
67157;SHT31;54086;50.126;8.710;2022-09-23T01:46:16;9.88;79.15
67157;SHT31;54086;50.126;8.710;2022-09-23T01:49:03;9.61;80.06
67157;SHT31;54086;50.126;8.710;2022-09-23T01:51:40;9.70;80.01
67157;SHT31;54086;50.126;8.710;2022-09-23T01:54:14;9.67;80.16
67157;SHT31;54086;50.126;8.710;2022-09-23T01:57:22;9.59;80.19
67157;SHT31;54086;50.126;8.710;2022-09-23T01:59:42;9.54;80.28
67157;SHT31;54086;50.126;8.710;2022-09-23T02:02:17;9.53;80.44
67157;SHT31;54086;50.126;8.710;2022-09-23T02:04:53;9.43;80.97
67157;SHT31;54086;50.126;8.710;2022-09-23T02:07:23;9.43;80.74
67157;SHT31;54086;50.126;8.710;2022-09-23T02:10:06;9.44;80.75
67157;SHT31;54086;50.126;8.710;2022-09-23T02:12:37;9.44;80.71
67157;SHT31;54086;50.126;8.710;2022-09-23T02:15:10;9.49;80.72
67157;SHT31;54086;50.126;8.710;2022-09-23T02:20:13;9.40;80.67
67157;SHT31;54086;50.126;8.710;2022-09-23T02:23:02;9.40;80.47
67157;SHT31;54086;50.126;8.710;2022-09-23T02:25:36;9.36;80.70
67157;SHT31;54086;50.126;8.710;2022-09-23T02:28:15;9.33;80.61
67157;SHT31;54086;50.126;8.710;2022-09-23T02:30:50;9.43;80.29
67157;SHT31;54086;50.126;8.710;2022-09-23T02:33:23;9.47;80.05
67157;SHT31;54086;50.126;8.710;2022-09-23T02:35:54;9.30;81.00
67157;SHT31;54086;50.126;8.710;2022-09-23T02:38:28;9.15;81.41
67157;SHT31;54086;50.126;8.710;2022-09-23T02:41:01;9.20;81.01
67157;SHT31;54086;50.126;8.710;2022-09-23T02:46:12;9.18;81.05
67157;SHT31;54086;50.126;8.710;2022-09-23T02:48:54;9.22;81.25
67157;SHT31;54086;50.126;8.710;2022-09-23T02:51:21;9.20;81.34
67157;SHT31;54086;50.126;8.710;2022-09-23T02:53:50;9.16;81.33
67157;SHT31;54086;50.126;8.710;2022-09-23T02:56:18;9.01;82.00
67157;SHT31;54086;50.126;8.710;2022-09-23T02:58:51;9.02;81.61
67157;SHT31;54086;50.126;8.710;2022-09-23T03:09:20;8.93;82.06
67157;SHT31;54086;50.126;8.710;2022-09-23T03:11:51;8.95;81.92
67157;SHT31;54086;50.126;8.710;2022-09-23T03:14:44;8.93;82.15
67157;SHT31;54086;50.126;8.710;2022-09-23T03:17:19;8.93;82.11
67157;SHT31;54086;50.126;8.710;2022-09-23T03:22:48;8.91;82.24
67157;SHT31;54086;50.126;8.710;2022-09-23T03:25:20;8.89;82.22
67157;SHT31;54086;50.126;8.710;2022-09-23T03:27:46;8.88;82.24
67157;SHT31;54086;50.126;8.710;2022-09-23T03:30:12;8.84;82.46
67157;SHT31;54086;50.126;8.710;2022-09-23T03:32:42;8.87;82.13
67157;SHT31;54086;50.126;8.710;2022-09-23T03:35:08;8.97;81.80
67157;SHT31;54086;50.126;8.710;2022-09-23T03:40:27;8.99;81.59
67157;SHT31;54086;50.126;8.710;2022-09-23T03:42:57;8.95;81.50
67157;SHT31;54086;50.126;8.710;2022-09-23T03:45:26;9.05;81.31
67157;SHT31;54086;50.126;8.710;2022-09-23T03:47:53;9.14;81.33
67157;SHT31;54086;50.126;8.710;2022-09-23T03:50:19;9.09;81.56
67157;SHT31;54086;50.126;8.710;2022-09-23T03:52:45;9.15;81.60
67157;SHT31;54086;50.126;8.710;2022-09-23T03:55:12;9.08;81.49
67157;SHT31;54086;50.126;8.710;2022-09-23T03:57:38;9.12;81.12
67157;SHT31;54086;50.126;8.710;2022-09-23T04:00:04;9.11;81.54
67157;SHT31;54086;50.126;8.710;2022-09-23T04:02:31;9.08;81.36
67157;SHT31;54086;50.126;8.710;2022-09-23T04:04:56;9.09;81.41
67157;SHT31;54086;50.126;8.710;2022-09-23T04:07:22;9.08;81.43
67157;SHT31;54086;50.126;8.710;2022-09-23T04:09:47;9.04;81.57
67157;SHT31;54086;50.126;8.710;2022-09-23T04:12:14;9.02;81.42
67157;SHT31;54086;50.126;8.710;2022-09-23T04:14:40;9.05;81.17
67157;SHT31;54086;50.126;8.710;2022-09-23T04:17:06;9.08;81.40
67157;SHT31;54086;50.126;8.710;2022-09-23T04:19:31;9.08;80.97
67157;SHT31;54086;50.126;8.710;2022-09-23T04:21:57;9.08;81.16
67157;SHT31;54086;50.126;8.710;2022-09-23T04:24:23;9.08;80.86
67157;SHT31;54086;50.126;8.710;2022-09-23T04:30:10;9.18;80.55
67157;SHT31;54086;50.126;8.710;2022-09-23T04:32:36;9.22;80.36
67157;SHT31;54086;50.126;8.710;2022-09-23T04:35:02;9.23;80.10
67157;SHT31;54086;50.126;8.710;2022-09-23T04:37:28;9.25;79.98
67157;SHT31;54086;50.126;8.710;2022-09-23T04:39:53;9.23;80.14
67157;SHT31;54086;50.126;8.710;2022-09-23T04:42:20;9.28;80.04
67157;SHT31;54086;50.126;8.710;2022-09-23T04:44:45;9.26;80.39
67157;SHT31;54086;50.126;8.710;2022-09-23T04:47:11;9.33;80.32
67157;SHT31;54086;50.126;8.710;2022-09-23T04:49:36;9.38;80.24
67157;SHT31;54086;50.126;8.710;2022-09-23T04:52:02;9.39;80.16
67157;SHT31;54086;50.126;8.710;2022-09-23T04:54:29;9.39;80.01
67157;SHT31;54086;50.126;8.710;2022-09-23T04:56:55;9.32;80.24
67157;SHT31;54086;50.126;8.710;2022-09-23T04:59:20;9.25;80.26
67157;SHT31;54086;50.126;8.710;2022-09-23T05:01:46;9.35;81.26
67157;SHT31;54086;50.126;8.710;2022-09-23T05:04:11;9.25;80.05
67157;SHT31;54086;50.126;8.710;2022-09-23T05:06:40;9.35;80.08
67157;SHT31;54086;50.126;8.710;2022-09-23T05:09:08;9.14;80.41
67157;SHT31;54086;50.126;8.710;2022-09-23T05:11:34;9.19;80.61
67157;SHT31;54086;50.126;8.710;2022-09-23T05:14:00;9.05;81.06
67157;SHT31;54086;50.126;8.710;2022-09-23T05:16:26;9.04;81.23
67157;SHT31;54086;50.126;8.710;2022-09-23T05:18:51;9.08;80.99
67157;SHT31;54086;50.126;8.710;2022-09-23T05:21:24;9.07;80.79
67157;SHT31;54086;50.126;8.710;2022-09-23T05:23:54;9.05;80.88
67157;SHT31;54086;50.126;8.710;2022-09-23T05:26:21;8.98;80.94
67157;SHT31;54086;50.126;8.710;2022-09-23T05:28:47;8.98;80.87
67157;SHT31;54086;50.126;8.710;2022-09-23T05:31:20;8.95;81.23
67157;SHT31;54086;50.126;8.710;2022-09-23T05:33:48;8.95;81.04
67157;SHT31;54086;50.126;8.710;2022-09-23T05:36:16;9.08;81.05
67157;SHT31;54086;50.126;8.710;2022-09-23T05:38:42;9.14;80.84
67157;SHT31;54086;50.126;8.710;2022-09-23T05:41:10;9.23;80.37
67157;SHT31;54086;50.126;8.710;2022-09-23T05:43:36;9.39;80.13
67157;SHT31;54086;50.126;8.710;2022-09-23T05:46:12;9.43;79.96
67157;SHT31;54086;50.126;8.710;2022-09-23T05:48:39;9.42;79.85
67157;SHT31;54086;50.126;8.710;2022-09-23T05:51:07;9.42;79.50
67157;SHT31;54086;50.126;8.710;2022-09-23T05:53:37;9.56;79.11
67157;SHT31;54086;50.126;8.710;2022-09-23T05:56:03;9.66;79.07
67157;SHT31;54086;50.126;8.710;2022-09-23T05:58:29;9.76;78.53
67157;SHT31;54086;50.126;8.710;2022-09-23T06:00:54;9.84;78.39
67157;SHT31;54086;50.126;8.710;2022-09-23T06:03:21;9.88;77.86
67157;SHT31;54086;50.126;8.710;2022-09-23T06:05:47;9.90;77.87
67157;SHT31;54086;50.126;8.710;2022-09-23T06:08:13;9.95;78.00
67157;SHT31;54086;50.126;8.710;2022-09-23T06:10:40;9.86;78.00
67157;SHT31;54086;50.126;8.710;2022-09-23T06:13:06;9.93;77.91
67157;SHT31;54086;50.126;8.710;2022-09-23T06:15:32;10.00;77.78
67157;SHT31;54086;50.126;8.710;2022-09-23T06:17:58;10.04;77.45
67157;SHT31;54086;50.126;8.710;2022-09-23T06:20:24;10.08;77.55
67157;SHT31;54086;50.126;8.710;2022-09-23T06:22:50;10.08;77.27
67157;SHT31;54086;50.126;8.710;2022-09-23T06:25:15;10.14;77.25
67157;SHT31;54086;50.126;8.710;2022-09-23T06:27:51;10.22;77.05
67157;SHT31;54086;50.126;8.710;2022-09-23T06:30:18;10.37;76.86
67157;SHT31;54086;50.126;8.710;2022-09-23T06:32:48;10.35;76.56
67157;SHT31;54086;50.126;8.710;2022-09-23T06:35:16;10.27;76.63
67157;SHT31;54086;50.126;8.710;2022-09-23T06:37:42;10.27;76.71
67157;SHT31;54086;50.126;8.710;2022-09-23T06:40:07;10.34;76.95
67157;SHT31;54086;50.126;8.710;2022-09-23T06:42:33;10.39;76.24
67157;SHT31;54086;50.126;8.710;2022-09-23T06:44:59;10.44;75.92
67157;SHT31;54086;50.126;8.710;2022-09-23T06:47:27;10.38;75.97
67157;SHT31;54086;50.126;8.710;2022-09-23T06:49:56;10.45;75.98
67157;SHT31;54086;50.126;8.710;2022-09-23T06:52:21;10.35;76.13
67157;SHT31;54086;50.126;8.710;2022-09-23T06:54:49;10.44;76.02
67157;SHT31;54086;50.126;8.710;2022-09-23T06:57:15;10.45;75.92
67157;SHT31;54086;50.126;8.710;2022-09-23T06:59:40;10.53;76.02
67157;SHT31;54086;50.126;8.710;2022-09-23T07:02:09;10.62;75.64
67157;SHT31;54086;50.126;8.710;2022-09-23T07:04:37;10.55;75.65
67157;SHT31;54086;50.126;8.710;2022-09-23T07:07:02;10.65;75.53
67157;SHT31;54086;50.126;8.710;2022-09-23T07:09:28;10.70;75.38
67157;SHT31;54086;50.126;8.710;2022-09-23T07:11:53;10.76;75.05
67157;SHT31;54086;50.126;8.710;2022-09-23T07:14:18;10.76;75.29
67157;SHT31;54086;50.126;8.710;2022-09-23T07:16:47;10.76;75.40
67157;SHT31;54086;50.126;8.710;2022-09-23T07:19:12;10.92;75.18
67157;SHT31;54086;50.126;8.710;2022-09-23T07:21:38;10.83;75.10
67157;SHT31;54086;50.126;8.710;2022-09-23T07:24:03;10.97;75.06
67157;SHT31;54086;50.126;8.710;2022-09-23T07:26:29;10.96;75.04
67157;SHT31;54086;50.126;8.710;2022-09-23T07:28:58;11.07;74.51
67157;SHT31;54086;50.126;8.710;2022-09-23T07:31:32;11.10;74.44
67157;SHT31;54086;50.126;8.710;2022-09-23T07:33:59;11.20;74.23
67157;SHT31;54086;50.126;8.710;2022-09-23T07:36:28;11.27;74.33
67157;SHT31;54086;50.126;8.710;2022-09-23T07:38:57;11.37;74.28
67157;SHT31;54086;50.126;8.710;2022-09-23T07:41:27;11.78;72.81
67157;SHT31;54086;50.126;8.710;2022-09-23T07:43:53;11.99;72.51
67157;SHT31;54086;50.126;8.710;2022-09-23T07:46:23;12.09;71.96
67157;SHT31;54086;50.126;8.710;2022-09-23T07:48:49;12.19;71.47
67157;SHT31;54086;50.126;8.710;2022-09-23T07:51:20;11.86;72.11
67157;SHT31;54086;50.126;8.710;2022-09-23T07:53:47;11.89;72.27
67157;SHT31;54086;50.126;8.710;2022-09-23T07:56:13;12.05;71.99
67157;SHT31;54086;50.126;8.710;2022-09-23T07:58:38;12.26;71.59
67157;SHT31;54086;50.126;8.710;2022-09-23T08:01:06;12.64;70.69
67157;SHT31;54086;50.126;8.710;2022-09-23T08:03:33;12.80;69.32
67157;SHT31;54086;50.126;8.710;2022-09-23T08:06:07;12.94;69.41
67157;SHT31;54086;50.126;8.710;2022-09-23T08:08:33;13.19;68.43
67157;SHT31;54086;50.126;8.710;2022-09-23T08:11:02;12.88;68.85
67157;SHT31;54086;50.126;8.710;2022-09-23T08:13:27;13.06;69.42
67157;SHT31;54086;50.126;8.710;2022-09-23T08:15:53;13.47;68.15
67157;SHT31;54086;50.126;8.710;2022-09-23T08:18:18;13.71;67.00
67157;SHT31;54086;50.126;8.710;2022-09-23T08:20:43;14.21;65.83
67157;SHT31;54086;50.126;8.710;2022-09-23T08:23:10;13.80;66.20
67157;SHT31;54086;50.126;8.710;2022-09-23T08:25:42;14.15;65.58
67157;SHT31;54086;50.126;8.710;2022-09-23T08:28:09;14.42;64.66
67157;SHT31;54086;50.126;8.710;2022-09-23T08:30:37;13.91;66.22
67157;SHT31;54086;50.126;8.710;2022-09-23T08:33:03;14.03;66.32
67157;SHT31;54086;50.126;8.710;2022-09-23T08:35:28;13.93;66.14
67157;SHT31;54086;50.126;8.710;2022-09-23T08:37:53;13.98;65.89
67157;SHT31;54086;50.126;8.710;2022-09-23T08:40:19;14.01;65.94
67157;SHT31;54086;50.126;8.710;2022-09-23T08:42:45;14.49;64.83
67157;SHT31;54086;50.126;8.710;2022-09-23T08:45:19;14.54;64.41
67157;SHT31;54086;50.126;8.710;2022-09-23T08:47:51;14.61;64.18
67157;SHT31;54086;50.126;8.710;2022-09-23T08:50:30;14.38;64.74
67157;SHT31;54086;50.126;8.710;2022-09-23T08:53:04;15.19;62.79
67157;SHT31;54086;50.126;8.710;2022-09-23T08:55:38;14.87;63.34
67157;SHT31;54086;50.126;8.710;2022-09-23T09:03:38;15.65;61.78
67157;SHT31;54086;50.126;8.710;2022-09-23T09:06:05;15.69;61.74
67157;SHT31;54086;50.126;8.710;2022-09-23T09:08:36;15.57;61.73
67157;SHT31;54086;50.126;8.710;2022-09-23T09:11:03;16.60;59.29
67157;SHT31;54086;50.126;8.710;2022-09-23T09:13:36;16.70;58.10
67157;SHT31;54086;50.126;8.710;2022-09-23T09:18:55;16.84;58.67
67157;SHT31;54086;50.126;8.710;2022-09-23T09:21:32;16.19;59.62
67157;SHT31;54086;50.126;8.710;2022-09-23T09:24:04;16.92;59.02
67157;SHT31;54086;50.126;8.710;2022-09-23T09:26:32;17.73;56.28
67157;SHT31;54086;50.126;8.710;2022-09-23T09:31:42;17.69;56.40
67157;SHT31;54086;50.126;8.710;2022-09-23T09:34:28;17.56;56.43
67157;SHT31;54086;50.126;8.710;2022-09-23T09:39:34;18.25;53.72
67157;SHT31;54086;50.126;8.710;2022-09-23T09:42:01;18.24;54.37
67157;SHT31;54086;50.126;8.710;2022-09-23T09:49:54;18.20;54.33
67157;SHT31;54086;50.126;8.710;2022-09-23T09:52:26;18.99;52.28
67157;SHT31;54086;50.126;8.710;2022-09-23T09:54:54;18.65;53.46
67157;SHT31;54086;50.126;8.710;2022-09-23T09:57:36;18.75;53.52
67157;SHT31;54086;50.126;8.710;2022-09-23T10:02:56;19.20;52.64
67157;SHT31;54086;50.126;8.710;2022-09-23T10:05:28;17.89;55.04
67157;SHT31;54086;50.126;8.710;2022-09-23T10:07:54;18.37;54.70
67157;SHT31;54086;50.126;8.710;2022-09-23T10:10:24;18.49;53.80
67157;SHT31;54086;50.126;8.710;2022-09-23T10:12:50;17.90;55.36
67157;SHT31;54086;50.126;8.710;2022-09-23T10:17:52;18.11;55.42
67157;SHT31;54086;50.126;8.710;2022-09-23T10:20:18;18.48;54.15
67157;SHT31;54086;50.126;8.710;2022-09-23T10:22:45;18.52;54.33
67157;SHT31;54086;50.126;8.710;2022-09-23T10:25:22;18.79;53.57
67157;SHT31;54086;50.126;8.710;2022-09-23T10:27:50;18.40;53.02
67157;SHT31;54086;50.126;8.710;2022-09-23T10:30:26;19.62;50.53
67157;SHT31;54086;50.126;8.710;2022-09-23T10:32:53;19.53;51.03
67157;SHT31;54086;50.126;8.710;2022-09-23T10:35:22;19.93;49.92
67157;SHT31;54086;50.126;8.710;2022-09-23T10:38:21;19.55;50.44
67157;SHT31;54086;50.126;8.710;2022-09-23T10:40:42;18.77;52.23
67157;SHT31;54086;50.126;8.710;2022-09-23T10:43:38;18.61;52.73
67157;SHT31;54086;50.126;8.710;2022-09-23T10:46:30;19.03;51.99
67157;SHT31;54086;50.126;8.710;2022-09-23T11:01:31;20.92;47.44
67157;SHT31;54086;50.126;8.710;2022-09-23T11:30:12;19.68;50.28
67157;SHT31;54086;50.126;8.710;2022-09-23T11:40:44;21.42;47.08
67157;SHT31;54086;50.126;8.710;2022-09-23T11:43:19;20.76;48.68
67157;SHT31;54086;50.126;8.710;2022-09-23T11:45:59;20.40;49.69
67157;SHT31;54086;50.126;8.710;2022-09-23T11:48:37;20.46;49.16
67157;SHT31;54086;50.126;8.710;2022-09-23T11:51:39;20.50;49.61
67157;SHT31;54086;50.126;8.710;2022-09-23T11:54:22;19.65;51.29
67157;SHT31;54086;50.126;8.710;2022-09-23T11:56:53;20.04;50.52
67157;SHT31;54086;50.126;8.710;2022-09-23T11:59:44;20.59;49.83
67157;SHT31;54086;50.126;8.710;2022-09-23T12:02:19;21.87;47.06
67157;SHT31;54086;50.126;8.710;2022-09-23T12:05:08;22.14;46.31
67157;SHT31;54086;50.126;8.710;2022-09-23T12:07:54;20.80;47.88
67157;SHT31;54086;50.126;8.710;2022-09-23T12:10:31;21.19;47.49
67157;SHT31;54086;50.126;8.710;2022-09-23T12:13:10;21.59;46.37
67157;SHT31;54086;50.126;8.710;2022-09-23T12:16:02;21.53;46.18
67157;SHT31;54086;50.126;8.710;2022-09-23T12:18:40;20.13;48.62
67157;SHT31;54086;50.126;8.710;2022-09-23T12:26:56;21.34;47.50
67157;SHT31;54086;50.126;8.710;2022-09-23T12:29:25;21.73;46.68
67157;SHT31;54086;50.126;8.710;2022-09-23T12:31:52;21.66;46.41
67157;SHT31;54086;50.126;8.710;2022-09-23T12:34:41;21.22;47.57
67157;SHT31;54086;50.126;8.710;2022-09-23T12:37:22;21.29;47.13
67157;SHT31;54086;50.126;8.710;2022-09-23T12:39:49;21.52;46.94
67157;SHT31;54086;50.126;8.710;2022-09-23T12:42:18;21.90;45.82
67157;SHT31;54086;50.126;8.710;2022-09-23T12:44:45;22.16;45.62
67157;SHT31;54086;50.126;8.710;2022-09-23T12:49:50;23.19;43.76
67157;SHT31;54086;50.126;8.710;2022-09-23T12:54:45;22.81;43.79
67157;SHT31;54086;50.126;8.710;2022-09-23T13:02:39;22.20;44.30
67157;SHT31;54086;50.126;8.710;2022-09-23T13:05:25;22.37;44.08
67157;SHT31;54086;50.126;8.710;2022-09-23T13:08:16;23.05;43.24
67157;SHT31;54086;50.126;8.710;2022-09-23T13:10:55;23.13;43.42
67157;SHT31;54086;50.126;8.710;2022-09-23T13:13:43;22.92;43.47
67157;SHT31;54086;50.126;8.710;2022-09-23T13:18:51;21.96;45.50
67157;SHT31;54086;50.126;8.710;2022-09-23T13:24:19;22.59;44.64
67157;SHT31;54086;50.126;8.710;2022-09-23T13:26:46;22.22;45.28
67157;SHT31;54086;50.126;8.710;2022-09-23T13:29:21;21.76;45.66
67157;SHT31;54086;50.126;8.710;2022-09-23T13:31:48;21.32;46.60
67157;SHT31;54086;50.126;8.710;2022-09-23T13:34:15;21.35;46.84
67157;SHT31;54086;50.126;8.710;2022-09-23T13:36:46;21.52;46.39
67157;SHT31;54086;50.126;8.710;2022-09-23T13:39:21;21.94;46.08
67157;SHT31;54086;50.126;8.710;2022-09-23T13:41:47;22.49;45.11
67157;SHT31;54086;50.126;8.710;2022-09-23T13:44:17;21.83;46.14
67157;SHT31;54086;50.126;8.710;2022-09-23T13:46:47;21.82;46.09
67157;SHT31;54086;50.126;8.710;2022-09-23T13:49:33;22.66;45.03
67157;SHT31;54086;50.126;8.710;2022-09-23T13:52:00;22.41;45.34
67157;SHT31;54086;50.126;8.710;2022-09-23T13:54:27;22.65;44.61
67157;SHT31;54086;50.126;8.710;2022-09-23T13:56:53;23.40;43.75
67157;SHT31;54086;50.126;8.710;2022-09-23T14:01:44;22.96;43.72
67157;SHT31;54086;50.126;8.710;2022-09-23T14:04:24;22.28;45.17
67157;SHT31;54086;50.126;8.710;2022-09-23T14:06:49;22.18;45.23
67157;SHT31;54086;50.126;8.710;2022-09-23T14:09:16;21.58;46.24
67157;SHT31;54086;50.126;8.710;2022-09-23T14:11:42;21.82;46.19
67157;SHT31;54086;50.126;8.710;2022-09-23T14:14:12;21.63;46.68
67157;SHT31;54086;50.126;8.710;2022-09-23T14:16:39;20.76;48.01
67157;SHT31;54086;50.126;8.710;2022-09-23T14:19:05;20.46;48.56
67157;SHT31;54086;50.126;8.710;2022-09-23T14:21:38;20.90;48.10
67157;SHT31;54086;50.126;8.710;2022-09-23T14:24:31;20.57;48.37
67157;SHT31;54086;50.126;8.710;2022-09-23T14:29:34;20.22;49.49
67157;SHT31;54086;50.126;8.710;2022-09-23T14:32:11;20.02;49.89
67157;SHT31;54086;50.126;8.710;2022-09-23T14:34:51;19.95;50.52
67157;SHT31;54086;50.126;8.710;2022-09-23T14:40:03;19.96;50.20
67157;SHT31;54086;50.126;8.710;2022-09-23T14:42:30;19.99;50.37
67157;SHT31;54086;50.126;8.710;2022-09-23T14:45:02;19.95;51.00
67157;SHT31;54086;50.126;8.710;2022-09-23T14:47:29;20.02;51.26
67157;SHT31;54086;50.126;8.710;2022-09-23T14:49:55;19.75;51.94
67157;SHT31;54086;50.126;8.710;2022-09-23T14:52:50;19.70;52.08
67157;SHT31;54086;50.126;8.710;2022-09-23T14:55:16;19.30;52.79
67157;SHT31;54086;50.126;8.710;2022-09-23T14:57:43;19.40;52.94
67157;SHT31;54086;50.126;8.710;2022-09-23T15:00:17;19.58;52.80
67157;SHT31;54086;50.126;8.710;2022-09-23T15:02:44;19.62;52.57
67157;SHT31;54086;50.126;8.710;2022-09-23T15:05:29;19.55;53.14
67157;SHT31;54086;50.126;8.710;2022-09-23T15:07:56;19.33;53.58
67157;SHT31;54086;50.126;8.710;2022-09-23T15:10:29;19.13;54.05
67157;SHT31;54086;50.126;8.710;2022-09-23T15:13:24;19.11;54.40
67157;SHT31;54086;50.126;8.710;2022-09-23T15:15:47;18.89;54.65
67157;SHT31;54086;50.126;8.710;2022-09-23T15:18:25;18.81;55.12
67157;SHT31;54086;50.126;8.710;2022-09-23T15:20:56;18.81;54.77
67157;SHT31;54086;50.126;8.710;2022-09-23T15:26:12;18.86;54.31
67157;SHT31;54086;50.126;8.710;2022-09-23T15:28:38;18.92;54.18
67157;SHT31;54086;50.126;8.710;2022-09-23T15:31:03;18.86;54.06
67157;SHT31;54086;50.126;8.710;2022-09-23T15:33:30;18.73;54.16
67157;SHT31;54086;50.126;8.710;2022-09-23T15:35:57;18.62;54.50
67157;SHT31;54086;50.126;8.710;2022-09-23T15:38:23;18.66;54.30
67157;SHT31;54086;50.126;8.710;2022-09-23T15:40:48;18.63;54.49
67157;SHT31;54086;50.126;8.710;2022-09-23T15:43:17;18.56;54.48
67157;SHT31;54086;50.126;8.710;2022-09-23T15:45:54;18.49;54.46
67157;SHT31;54086;50.126;8.710;2022-09-23T15:48:27;18.59;54.19
67157;SHT31;54086;50.126;8.710;2022-09-23T15:50:53;18.69;54.31
67157;SHT31;54086;50.126;8.710;2022-09-23T15:53:22;18.63;54.21
67157;SHT31;54086;50.126;8.710;2022-09-23T15:55:48;18.47;54.62
67157;SHT31;54086;50.126;8.710;2022-09-23T15:58:20;18.48;54.80
67157;SHT31;54086;50.126;8.710;2022-09-23T16:00:47;18.34;54.92
67157;SHT31;54086;50.126;8.710;2022-09-23T16:03:16;18.45;54.97
67157;SHT31;54086;50.126;8.710;2022-09-23T16:05:44;18.40;55.18
67157;SHT31;54086;50.126;8.710;2022-09-23T16:08:11;18.27;55.27
67157;SHT31;54086;50.126;8.710;2022-09-23T16:10:37;18.18;55.37
67157;SHT31;54086;50.126;8.710;2022-09-23T16:13:05;18.14;55.46
67157;SHT31;54086;50.126;8.710;2022-09-23T16:15:31;18.14;55.74
67157;SHT31;54086;50.126;8.710;2022-09-23T16:17:58;18.17;55.86
67157;SHT31;54086;50.126;8.710;2022-09-23T16:20:27;18.13;56.09
67157;SHT31;54086;50.126;8.710;2022-09-23T16:25:20;18.01;56.41
67157;SHT31;54086;50.126;8.710;2022-09-23T16:27:45;17.94;56.63
67157;SHT31;54086;50.126;8.710;2022-09-23T16:30:11;17.86;56.84
67157;SHT31;54086;50.126;8.710;2022-09-23T16:32:36;17.86;56.86
67157;SHT31;54086;50.126;8.710;2022-09-23T16:35:03;17.77;57.04
67157;SHT31;54086;50.126;8.710;2022-09-23T16:37:30;17.80;57.11
67157;SHT31;54086;50.126;8.710;2022-09-23T16:39:55;17.70;57.46
67157;SHT31;54086;50.126;8.710;2022-09-23T16:42:21;17.67;57.87
67157;SHT31;54086;50.126;8.710;2022-09-23T16:44:47;17.67;57.86
67157;SHT31;54086;50.126;8.710;2022-09-23T16:47:12;17.59;58.00
67157;SHT31;54086;50.126;8.710;2022-09-23T16:49:38;17.56;58.20
67157;SHT31;54086;50.126;8.710;2022-09-23T16:52:03;17.60;58.40
67157;SHT31;54086;50.126;8.710;2022-09-23T16:54:29;17.65;58.54
67157;SHT31;54086;50.126;8.710;2022-09-23T16:56:54;17.56;58.81
67157;SHT31;54086;50.126;8.710;2022-09-23T16:59:20;17.60;59.22
67157;SHT31;54086;50.126;8.710;2022-09-23T17:01:46;17.54;58.99
67157;SHT31;54086;50.126;8.710;2022-09-23T17:04:30;17.45;59.10
67157;SHT31;54086;50.126;8.710;2022-09-23T17:06:55;17.40;59.53
67157;SHT31;54086;50.126;8.710;2022-09-23T17:09:23;17.42;59.69
67157;SHT31;54086;50.126;8.710;2022-09-23T17:12:12;17.43;59.79
67157;SHT31;54086;50.126;8.710;2022-09-23T17:14:39;17.36;59.76
67157;SHT31;54086;50.126;8.710;2022-09-23T17:17:05;17.40;60.13
67157;SHT31;54086;50.126;8.710;2022-09-23T17:19:30;17.42;60.17
67157;SHT31;54086;50.126;8.710;2022-09-23T17:21:57;17.52;60.30
67157;SHT31;54086;50.126;8.710;2022-09-23T17:24:23;17.42;60.48
67157;SHT31;54086;50.126;8.710;2022-09-23T17:26:48;17.40;60.37
67157;SHT31;54086;50.126;8.710;2022-09-23T17:29:13;17.36;60.41
67157;SHT31;54086;50.126;8.710;2022-09-23T17:31:39;17.39;60.35
67157;SHT31;54086;50.126;8.710;2022-09-23T17:34:05;17.39;60.47
67157;SHT31;54086;50.126;8.710;2022-09-23T17:36:30;17.33;60.91
67157;SHT31;54086;50.126;8.710;2022-09-23T17:38:56;17.36;61.08
67157;SHT31;54086;50.126;8.710;2022-09-23T17:41:21;17.25;61.38
67157;SHT31;54086;50.126;8.710;2022-09-23T17:43:47;17.21;61.80
67157;SHT31;54086;50.126;8.710;2022-09-23T17:46:17;17.12;61.86
67157;SHT31;54086;50.126;8.710;2022-09-23T17:48:43;17.15;62.17
67157;SHT31;54086;50.126;8.710;2022-09-23T17:51:11;17.11;62.22
67157;SHT31;54086;50.126;8.710;2022-09-23T17:53:39;17.10;62.50
67157;SHT31;54086;50.126;8.710;2022-09-23T17:56:06;17.18;62.14
67157;SHT31;54086;50.126;8.710;2022-09-23T17:58:35;17.11;62.35
67157;SHT31;54086;50.126;8.710;2022-09-23T18:01:00;17.10;62.51
67157;SHT31;54086;50.126;8.710;2022-09-23T18:03:27;17.02;62.69
67157;SHT31;54086;50.126;8.710;2022-09-23T18:05:53;16.98;62.93
67157;SHT31;54086;50.126;8.710;2022-09-23T18:08:19;16.96;63.39
67157;SHT31;54086;50.126;8.710;2022-09-23T18:10:44;16.91;63.39
67157;SHT31;54086;50.126;8.710;2022-09-23T18:13:10;16.84;63.83
67157;SHT31;54086;50.126;8.710;2022-09-23T18:15:37;16.84;64.07
67157;SHT31;54086;50.126;8.710;2022-09-23T18:18:03;16.87;64.15
67157;SHT31;54086;50.126;8.710;2022-09-23T18:20:29;16.77;64.27
67157;SHT31;54086;50.126;8.710;2022-09-23T18:22:55;16.68;64.76